sensor_id;sensor_type;location;lat;lon;timestamp;temperature;humidity
11569;DHT22;5840;46.894;15.542;2023-05-07T00:00:42;14.00;99.90
11569;DHT22;5840;46.894;15.542;2023-05-07T00:03:09;13.90;99.90
11569;DHT22;5840;46.894;15.542;2023-05-07T00:05:37;13.90;99.90
11569;DHT22;5840;46.894;15.542;2023-05-07T00:08:04;13.90;99.90
11569;DHT22;5840;46.894;15.542;2023-05-07T00:10:31;13.90;99.90
11569;DHT22;5840;46.894;15.542;2023-05-07T00:12:58;13.90;99.90
11569;DHT22;5840;46.894;15.542;2023-05-07T00:15:27;13.80;99.90
11569;DHT22;5840;46.894;15.542;2023-05-07T00:17:55;13.80;99.90
11569;DHT22;5840;46.894;15.542;2023-05-07T00:20:23;13.80;99.90
11569;DHT22;5840;46.894;15.542;2023-05-07T00:22:49;13.80;99.90
11569;DHT22;5840;46.894;15.542;2023-05-07T00:25:16;13.80;99.90
11569;DHT22;5840;46.894;15.542;2023-05-07T00:27:45;13.80;99.90
11569;DHT22;5840;46.894;15.542;2023-05-07T00:30:12;13.80;99.90
11569;DHT22;5840;46.894;15.542;2023-05-07T00:32:40;13.80;99.90
11569;DHT22;5840;46.894;15.542;2023-05-07T00:35:08;13.80;99.90
11569;DHT22;5840;46.894;15.542;2023-05-07T00:37:35;13.80;99.90
11569;DHT22;5840;46.894;15.542;2023-05-07T00:40:02;13.80;99.90
11569;DHT22;5840;46.894;15.542;2023-05-07T00:42:32;13.80;99.90
11569;DHT22;5840;46.894;15.542;2023-05-07T00:44:59;13.90;99.90
11569;DHT22;5840;46.894;15.542;2023-05-07T00:47:26;13.80;99.90
11569;DHT22;5840;46.894;15.542;2023-05-07T00:49:54;13.80;99.90
11569;DHT22;5840;46.894;15.542;2023-05-07T00:52:24;13.80;99.90
11569;DHT22;5840;46.894;15.542;2023-05-07T00:54:52;13.80;99.90
11569;DHT22;5840;46.894;15.542;2023-05-07T00:57:21;13.80;99.90
11569;DHT22;5840;46.894;15.542;2023-05-07T00:59:48;13.80;99.90
11569;DHT22;5840;46.894;15.542;2023-05-07T01:02:16;13.80;99.90
11569;DHT22;5840;46.894;15.542;2023-05-07T01:04:43;13.80;99.90
11569;DHT22;5840;46.894;15.542;2023-05-07T01:07:11;13.80;99.90
11569;DHT22;5840;46.894;15.542;2023-05-07T01:09:39;13.90;99.90
11569;DHT22;5840;46.894;15.542;2023-05-07T01:12:07;13.80;99.90
11569;DHT22;5840;46.894;15.542;2023-05-07T01:14:34;13.80;99.90
11569;DHT22;5840;46.894;15.542;2023-05-07T01:17:01;13.80;99.90
11569;DHT22;5840;46.894;15.542;2023-05-07T01:19:29;13.80;99.90
11569;DHT22;5840;46.894;15.542;2023-05-07T01:22:02;13.80;99.90
11569;DHT22;5840;46.894;15.542;2023-05-07T01:24:31;13.80;99.90
11569;DHT22;5840;46.894;15.542;2023-05-07T01:26:59;13.90;99.90
11569;DHT22;5840;46.894;15.542;2023-05-07T01:29:27;13.80;99.90
11569;DHT22;5840;46.894;15.542;2023-05-07T01:31:55;13.80;99.90
11569;DHT22;5840;46.894;15.542;2023-05-07T01:34:25;13.80;99.90
11569;DHT22;5840;46.894;15.542;2023-05-07T01:36:54;13.80;99.90
11569;DHT22;5840;46.894;15.542;2023-05-07T01:39:24;13.80;99.90
11569;DHT22;5840;46.894;15.542;2023-05-07T01:41:54;13.80;99.90
11569;DHT22;5840;46.894;15.542;2023-05-07T01:44:22;13.70;99.90
11569;DHT22;5840;46.894;15.542;2023-05-07T01:46:49;13.70;99.90
11569;DHT22;5840;46.894;15.542;2023-05-07T01:49:17;13.70;99.90
11569;DHT22;5840;46.894;15.542;2023-05-07T01:51:44;13.70;99.90
11569;DHT22;5840;46.894;15.542;2023-05-07T01:54:11;13.60;99.90
11569;DHT22;5840;46.894;15.542;2023-05-07T01:56:37;13.60;99.90
11569;DHT22;5840;46.894;15.542;2023-05-07T01:59:06;13.60;99.90
11569;DHT22;5840;46.894;15.542;2023-05-07T02:01:33;13.60;99.90
11569;DHT22;5840;46.894;15.542;2023-05-07T02:04:00;13.50;99.90
11569;DHT22;5840;46.894;15.542;2023-05-07T02:06:27;13.50;99.90
11569;DHT22;5840;46.894;15.542;2023-05-07T02:08:53;13.50;99.90
11569;DHT22;5840;46.894;15.542;2023-05-07T02:11:20;13.50;99.90
11569;DHT22;5840;46.894;15.542;2023-05-07T02:13:47;13.50;99.90
11569;DHT22;5840;46.894;15.542;2023-05-07T02:16:16;13.40;99.90
11569;DHT22;5840;46.894;15.542;2023-05-07T02:18:43;13.40;99.90
11569;DHT22;5840;46.894;15.542;2023-05-07T02:21:09;13.40;99.90
11569;DHT22;5840;46.894;15.542;2023-05-07T02:23:36;13.40;99.90
11569;DHT22;5840;46.894;15.542;2023-05-07T02:26:04;13.30;99.90
11569;DHT22;5840;46.894;15.542;2023-05-07T02:28:31;13.30;99.90
11569;DHT22;5840;46.894;15.542;2023-05-07T02:30:57;13.30;99.90
11569;DHT22;5840;46.894;15.542;2023-05-07T02:33:27;13.30;99.90
11569;DHT22;5840;46.894;15.542;2023-05-07T02:35:54;13.20;99.90
11569;DHT22;5840;46.894;15.542;2023-05-07T02:38:21;13.20;99.90
11569;DHT22;5840;46.894;15.542;2023-05-07T02:40:48;13.20;99.90
11569;DHT22;5840;46.894;15.542;2023-05-07T02:43:15;13.20;99.90
11569;DHT22;5840;46.894;15.542;2023-05-07T02:45:42;13.20;99.90
11569;DHT22;5840;46.894;15.542;2023-05-07T02:48:09;13.20;99.90
11569;DHT22;5840;46.894;15.542;2023-05-07T02:50:38;13.10;99.90
11569;DHT22;5840;46.894;15.542;2023-05-07T02:53:04;13.10;99.90
11569;DHT22;5840;46.894;15.542;2023-05-07T02:55:32;13.10;99.90
11569;DHT22;5840;46.894;15.542;2023-05-07T02:57:59;13.10;99.90
11569;DHT22;5840;46.894;15.542;2023-05-07T03:00:26;13.10;99.90
11569;DHT22;5840;46.894;15.542;2023-05-07T03:02:52;13.10;99.90
11569;DHT22;5840;46.894;15.542;2023-05-07T03:05:20;13.10;99.90
11569;DHT22;5840;46.894;15.542;2023-05-07T03:07:48;13.10;99.90
11569;DHT22;5840;46.894;15.542;2023-05-07T03:10:15;13.10;99.90
11569;DHT22;5840;46.894;15.542;2023-05-07T03:12:42;13.00;99.90
11569;DHT22;5840;46.894;15.542;2023-05-07T03:15:10;13.00;99.90
11569;DHT22;5840;46.894;15.542;2023-05-07T03:17:37;13.00;99.90
11569;DHT22;5840;46.894;15.542;2023-05-07T03:20:05;13.00;99.90
11569;DHT22;5840;46.894;15.542;2023-05-07T03:22:32;13.00;99.90
11569;DHT22;5840;46.894;15.542;2023-05-07T03:25:00;13.00;99.90
11569;DHT22;5840;46.894;15.542;2023-05-07T03:27:27;13.00;99.90
11569;DHT22;5840;46.894;15.542;2023-05-07T03:29:54;13.00;99.90
11569;DHT22;5840;46.894;15.542;2023-05-07T03:32:21;12.90;99.90
11569;DHT22;5840;46.894;15.542;2023-05-07T03:34:48;12.90;99.90
11569;DHT22;5840;46.894;15.542;2023-05-07T03:37:15;12.90;99.90
11569;DHT22;5840;46.894;15.542;2023-05-07T03:39:42;12.80;99.90
11569;DHT22;5840;46.894;15.542;2023-05-07T03:42:10;12.80;99.90
11569;DHT22;5840;46.894;15.542;2023-05-07T03:44:37;12.80;99.90
11569;DHT22;5840;46.894;15.542;2023-05-07T03:47:04;12.70;99.90
11569;DHT22;5840;46.894;15.542;2023-05-07T03:49:31;12.70;99.90
11569;DHT22;5840;46.894;15.542;2023-05-07T03:51:58;12.70;99.90
11569;DHT22;5840;46.894;15.542;2023-05-07T03:54:25;12.60;99.90
11569;DHT22;5840;46.894;15.542;2023-05-07T03:56:52;12.60;99.90
11569;DHT22;5840;46.894;15.542;2023-05-07T03:59:20;12.60;99.90
11569;DHT22;5840;46.894;15.542;2023-05-07T04:01:47;12.60;99.90
11569;DHT22;5840;46.894;15.542;2023-05-07T04:04:14;12.60;99.90
11569;DHT22;5840;46.894;15.542;2023-05-07T04:06:41;12.60;99.90
11569;DHT22;5840;46.894;15.542;2023-05-07T04:09:08;12.60;99.90
11569;DHT22;5840;46.894;15.542;2023-05-07T04:11:35;12.60;99.90
11569;DHT22;5840;46.894;15.542;2023-05-07T04:14:02;12.60;99.90
11569;DHT22;5840;46.894;15.542;2023-05-07T04:16:30;12.60;99.90
11569;DHT22;5840;46.894;15.542;2023-05-07T04:18:57;12.70;99.90
11569;DHT22;5840;46.894;15.542;2023-05-07T04:21:24;12.70;99.90
11569;DHT22;5840;46.894;15.542;2023-05-07T04:23:52;12.70;99.90
11569;DHT22;5840;46.894;15.542;2023-05-07T04:26:18;12.70;99.90
11569;DHT22;5840;46.894;15.542;2023-05-07T04:28:46;12.70;99.90
11569;DHT22;5840;46.894;15.542;2023-05-07T04:31:13;12.70;99.90
11569;DHT22;5840;46.894;15.542;2023-05-07T04:33:42;12.80;99.90
11569;DHT22;5840;46.894;15.542;2023-05-07T04:36:08;12.70;99.90
11569;DHT22;5840;46.894;15.542;2023-05-07T04:38:36;12.80;99.90
11569;DHT22;5840;46.894;15.542;2023-05-07T04:41:05;12.80;99.90
11569;DHT22;5840;46.894;15.542;2023-05-07T04:43:32;12.80;99.90
11569;DHT22;5840;46.894;15.542;2023-05-07T04:45:59;12.80;99.90
11569;DHT22;5840;46.894;15.542;2023-05-07T04:48:26;12.80;99.90
11569;DHT22;5840;46.894;15.542;2023-05-07T04:50:55;12.90;99.90
11569;DHT22;5840;46.894;15.542;2023-05-07T04:53:23;12.90;99.90
11569;DHT22;5840;46.894;15.542;2023-05-07T04:55:55;12.90;99.90
11569;DHT22;5840;46.894;15.542;2023-05-07T04:58:22;12.90;99.90
11569;DHT22;5840;46.894;15.542;2023-05-07T05:00:49;13.00;99.90
11569;DHT22;5840;46.894;15.542;2023-05-07T05:03:16;13.00;99.90
11569;DHT22;5840;46.894;15.542;2023-05-07T05:05:44;13.00;99.90
11569;DHT22;5840;46.894;15.542;2023-05-07T05:08:12;13.10;99.90
11569;DHT22;5840;46.894;15.542;2023-05-07T05:10:39;13.10;99.90
11569;DHT22;5840;46.894;15.542;2023-05-07T05:13:08;13.10;99.90
11569;DHT22;5840;46.894;15.542;2023-05-07T05:15:38;13.20;99.90
11569;DHT22;5840;46.894;15.542;2023-05-07T05:18:05;13.30;99.90
11569;DHT22;5840;46.894;15.542;2023-05-07T05:20:32;13.30;99.90
11569;DHT22;5840;46.894;15.542;2023-05-07T05:22:59;13.40;99.90
11569;DHT22;5840;46.894;15.542;2023-05-07T05:25:27;13.40;99.90
11569;DHT22;5840;46.894;15.542;2023-05-07T05:27:54;13.40;99.90
11569;DHT22;5840;46.894;15.542;2023-05-07T05:30:21;13.50;99.90
11569;DHT22;5840;46.894;15.542;2023-05-07T05:32:48;13.50;99.90
11569;DHT22;5840;46.894;15.542;2023-05-07T05:35:15;13.60;99.90
11569;DHT22;5840;46.894;15.542;2023-05-07T05:37:41;13.60;99.90
11569;DHT22;5840;46.894;15.542;2023-05-07T05:40:09;13.70;99.90
11569;DHT22;5840;46.894;15.542;2023-05-07T05:42:37;13.80;99.90
11569;DHT22;5840;46.894;15.542;2023-05-07T05:45:05;13.80;99.90
11569;DHT22;5840;46.894;15.542;2023-05-07T05:47:32;14.00;99.90
11569;DHT22;5840;46.894;15.542;2023-05-07T05:49:59;14.10;99.90
11569;DHT22;5840;46.894;15.542;2023-05-07T05:52:26;14.20;99.90
11569;DHT22;5840;46.894;15.542;2023-05-07T05:54:53;14.40;99.90
11569;DHT22;5840;46.894;15.542;2023-05-07T05:57:20;14.50;99.90
11569;DHT22;5840;46.894;15.542;2023-05-07T05:59:48;14.60;99.90
11569;DHT22;5840;46.894;15.542;2023-05-07T06:02:15;14.60;99.90
11569;DHT22;5840;46.894;15.542;2023-05-07T06:04:42;14.70;99.90
11569;DHT22;5840;46.894;15.542;2023-05-07T06:07:09;14.80;99.90
11569;DHT22;5840;46.894;15.542;2023-05-07T06:09:36;14.90;99.90
11569;DHT22;5840;46.894;15.542;2023-05-07T06:12:03;15.10;99.90
11569;DHT22;5840;46.894;15.542;2023-05-07T06:14:30;15.20;99.90
11569;DHT22;5840;46.894;15.542;2023-05-07T06:16:59;15.30;99.90
11569;DHT22;5840;46.894;15.542;2023-05-07T06:19:25;15.50;99.90
11569;DHT22;5840;46.894;15.542;2023-05-07T06:21:53;15.50;99.90
11569;DHT22;5840;46.894;15.542;2023-05-07T06:24:21;15.60;99.90
11569;DHT22;5840;46.894;15.542;2023-05-07T06:26:48;15.60;99.90
11569;DHT22;5840;46.894;15.542;2023-05-07T06:29:15;15.70;99.90
11569;DHT22;5840;46.894;15.542;2023-05-07T06:31:42;15.70;99.90
11569;DHT22;5840;46.894;15.542;2023-05-07T06:34:10;15.70;99.90
11569;DHT22;5840;46.894;15.542;2023-05-07T06:36:39;15.80;99.90
11569;DHT22;5840;46.894;15.542;2023-05-07T06:39:06;15.90;99.90
11569;DHT22;5840;46.894;15.542;2023-05-07T06:41:33;16.10;99.90
11569;DHT22;5840;46.894;15.542;2023-05-07T06:44:01;16.30;99.90
11569;DHT22;5840;46.894;15.542;2023-05-07T06:46:28;16.50;99.90
11569;DHT22;5840;46.894;15.542;2023-05-07T06:48:55;16.80;99.90
11569;DHT22;5840;46.894;15.542;2023-05-07T06:51:24;16.80;99.90
11569;DHT22;5840;46.894;15.542;2023-05-07T06:53:51;17.00;99.90
11569;DHT22;5840;46.894;15.542;2023-05-07T06:56:17;17.00;99.90
11569;DHT22;5840;46.894;15.542;2023-05-07T06:58:45;17.00;99.90
11569;DHT22;5840;46.894;15.542;2023-05-07T07:01:12;17.20;99.90
11569;DHT22;5840;46.894;15.542;2023-05-07T07:03:39;17.30;99.90
11569;DHT22;5840;46.894;15.542;2023-05-07T07:06:06;17.50;99.90
11569;DHT22;5840;46.894;15.542;2023-05-07T07:08:34;17.60;99.90
11569;DHT22;5840;46.894;15.542;2023-05-07T07:11:01;17.80;99.90
11569;DHT22;5840;46.894;15.542;2023-05-07T07:13:28;17.90;99.90
11569;DHT22;5840;46.894;15.542;2023-05-07T07:15:55;18.00;99.90
11569;DHT22;5840;46.894;15.542;2023-05-07T07:18:21;18.20;99.90
11569;DHT22;5840;46.894;15.542;2023-05-07T07:20:48;18.40;99.90
11569;DHT22;5840;46.894;15.542;2023-05-07T07:23:15;18.60;99.90
11569;DHT22;5840;46.894;15.542;2023-05-07T07:25:44;18.80;99.90
11569;DHT22;5840;46.894;15.542;2023-05-07T07:28:10;19.10;99.90
11569;DHT22;5840;46.894;15.542;2023-05-07T07:30:38;19.30;99.90
11569;DHT22;5840;46.894;15.542;2023-05-07T07:33:05;19.40;99.90
11569;DHT22;5840;46.894;15.542;2023-05-07T07:35:32;19.50;99.90
11569;DHT22;5840;46.894;15.542;2023-05-07T07:37:59;19.70;99.90
11569;DHT22;5840;46.894;15.542;2023-05-07T07:40:27;19.90;99.90
11569;DHT22;5840;46.894;15.542;2023-05-07T07:42:56;20.10;99.90
11569;DHT22;5840;46.894;15.542;2023-05-07T07:45:23;20.00;99.90
11569;DHT22;5840;46.894;15.542;2023-05-07T07:47:50;20.00;99.90
11569;DHT22;5840;46.894;15.542;2023-05-07T07:50:17;20.30;99.90
11569;DHT22;5840;46.894;15.542;2023-05-07T07:52:44;20.50;99.90
11569;DHT22;5840;46.894;15.542;2023-05-07T07:55:11;20.50;99.90
11569;DHT22;5840;46.894;15.542;2023-05-07T07:57:38;20.60;99.90
11569;DHT22;5840;46.894;15.542;2023-05-07T08:00:07;20.60;99.90
11569;DHT22;5840;46.894;15.542;2023-05-07T08:02:34;20.80;99.90
11569;DHT22;5840;46.894;15.542;2023-05-07T08:05:01;21.00;99.90
11569;DHT22;5840;46.894;15.542;2023-05-07T08:07:28;21.20;99.90
11569;DHT22;5840;46.894;15.542;2023-05-07T08:09:55;21.60;99.90
11569;DHT22;5840;46.894;15.542;2023-05-07T08:12:22;21.90;99.90
11569;DHT22;5840;46.894;15.542;2023-05-07T08:14:49;22.10;99.90
11569;DHT22;5840;46.894;15.542;2023-05-07T08:17:18;22.30;99.90
11569;DHT22;5840;46.894;15.542;2023-05-07T08:19:47;22.60;99.90
11569;DHT22;5840;46.894;15.542;2023-05-07T08:22:14;22.30;99.90
11569;DHT22;5840;46.894;15.542;2023-05-07T08:24:41;22.00;99.90
11569;DHT22;5840;46.894;15.542;2023-05-07T08:27:08;22.10;99.90
11569;DHT22;5840;46.894;15.542;2023-05-07T08:29:35;22.00;99.90
11569;DHT22;5840;46.894;15.542;2023-05-07T08:32:02;21.90;99.90
11569;DHT22;5840;46.894;15.542;2023-05-07T08:34:30;22.00;99.90
11569;DHT22;5840;46.894;15.542;2023-05-07T08:36:57;22.10;99.90
11569;DHT22;5840;46.894;15.542;2023-05-07T08:39:24;22.20;99.90
11569;DHT22;5840;46.894;15.542;2023-05-07T08:41:52;22.40;99.90
11569;DHT22;5840;46.894;15.542;2023-05-07T08:44:22;22.40;99.90
11569;DHT22;5840;46.894;15.542;2023-05-07T08:46:52;22.70;99.90
11569;DHT22;5840;46.894;15.542;2023-05-07T08:49:20;22.90;99.90
11569;DHT22;5840;46.894;15.542;2023-05-07T08:51:50;23.00;99.90
11569;DHT22;5840;46.894;15.542;2023-05-07T08:54:17;22.80;99.90
11569;DHT22;5840;46.894;15.542;2023-05-07T08:56:45;22.60;99.90
11569;DHT22;5840;46.894;15.542;2023-05-07T08:59:12;22.40;99.90
11569;DHT22;5840;46.894;15.542;2023-05-07T09:01:39;22.50;99.90
11569;DHT22;5840;46.894;15.542;2023-05-07T09:04:06;22.90;99.90
11569;DHT22;5840;46.894;15.542;2023-05-07T09:06:33;23.00;99.90
11569;DHT22;5840;46.894;15.542;2023-05-07T09:09:02;23.20;99.90
11569;DHT22;5840;46.894;15.542;2023-05-07T09:11:31;23.30;99.90
11569;DHT22;5840;46.894;15.542;2023-05-07T09:13:58;23.50;99.90
11569;DHT22;5840;46.894;15.542;2023-05-07T09:16:28;23.30;99.90
11569;DHT22;5840;46.894;15.542;2023-05-07T09:18:57;23.70;99.90
11569;DHT22;5840;46.894;15.542;2023-05-07T09:21:25;23.60;99.30
11569;DHT22;5840;46.894;15.542;2023-05-07T09:23:54;23.70;99.90
11569;DHT22;5840;46.894;15.542;2023-05-07T09:26:23;23.80;99.90
11569;DHT22;5840;46.894;15.542;2023-05-07T09:28:50;23.70;99.90
11569;DHT22;5840;46.894;15.542;2023-05-07T09:31:17;23.80;99.90
11569;DHT22;5840;46.894;15.542;2023-05-07T09:33:44;23.60;99.70
11569;DHT22;5840;46.894;15.542;2023-05-07T09:36:11;23.80;99.00
11569;DHT22;5840;46.894;15.542;2023-05-07T09:38:38;23.80;99.90
11569;DHT22;5840;46.894;15.542;2023-05-07T09:41:06;23.90;98.30
11569;DHT22;5840;46.894;15.542;2023-05-07T09:43:35;24.10;98.60
11569;DHT22;5840;46.894;15.542;2023-05-07T09:46:06;24.00;97.70
11569;DHT22;5840;46.894;15.542;2023-05-07T09:48:37;24.00;98.30
11569;DHT22;5840;46.894;15.542;2023-05-07T09:51:15;24.30;99.40
11569;DHT22;5840;46.894;15.542;2023-05-07T09:53:43;24.40;97.20
11569;DHT22;5840;46.894;15.542;2023-05-07T09:56:13;24.50;99.90
11569;DHT22;5840;46.894;15.542;2023-05-07T09:58:43;24.40;99.90
11569;DHT22;5840;46.894;15.542;2023-05-07T10:01:12;24.00;99.20
11569;DHT22;5840;46.894;15.542;2023-05-07T10:03:40;23.80;97.80
11569;DHT22;5840;46.894;15.542;2023-05-07T10:06:09;23.50;99.10
11569;DHT22;5840;46.894;15.542;2023-05-07T10:08:36;23.20;98.70
11569;DHT22;5840;46.894;15.542;2023-05-07T10:11:04;23.30;99.90
11569;DHT22;5840;46.894;15.542;2023-05-07T10:13:33;23.70;99.90
11569;DHT22;5840;46.894;15.542;2023-05-07T10:16:03;24.10;99.40
11569;DHT22;5840;46.894;15.542;2023-05-07T10:18:30;24.30;98.50
11569;DHT22;5840;46.894;15.542;2023-05-07T10:21:02;24.40;98.90
11569;DHT22;5840;46.894;15.542;2023-05-07T10:23:31;24.70;99.90
11569;DHT22;5840;46.894;15.542;2023-05-07T10:26:00;24.60;97.10
11569;DHT22;5840;46.894;15.542;2023-05-07T10:28:29;24.50;96.90
11569;DHT22;5840;46.894;15.542;2023-05-07T10:31:07;24.60;97.10
11569;DHT22;5840;46.894;15.542;2023-05-07T10:33:34;24.70;98.20
11569;DHT22;5840;46.894;15.542;2023-05-07T10:36:05;25.10;99.30
11569;DHT22;5840;46.894;15.542;2023-05-07T10:38:33;25.20;97.30
11569;DHT22;5840;46.894;15.542;2023-05-07T10:41:01;25.50;97.30
11569;DHT22;5840;46.894;15.542;2023-05-07T10:43:39;25.60;96.90
11569;DHT22;5840;46.894;15.542;2023-05-07T10:46:14;25.90;99.10
11569;DHT22;5840;46.894;15.542;2023-05-07T10:49:06;25.80;94.00
11569;DHT22;5840;46.894;15.542;2023-05-07T10:51:34;25.70;94.90
11569;DHT22;5840;46.894;15.542;2023-05-07T10:54:31;25.50;94.90
11569;DHT22;5840;46.894;15.542;2023-05-07T10:57:36;25.50;96.30
11569;DHT22;5840;46.894;15.542;2023-05-07T11:00:03;25.60;95.00
11569;DHT22;5840;46.894;15.542;2023-05-07T11:03:06;25.70;96.80
11569;DHT22;5840;46.894;15.542;2023-05-07T11:05:34;25.80;96.30
11569;DHT22;5840;46.894;15.542;2023-05-07T11:08:01;26.10;96.30
11569;DHT22;5840;46.894;15.542;2023-05-07T11:10:47;26.20;95.30
11569;DHT22;5840;46.894;15.542;2023-05-07T11:13:15;26.50;95.90
11569;DHT22;5840;46.894;15.542;2023-05-07T11:15:44;26.50;96.90
11569;DHT22;5840;46.894;15.542;2023-05-07T11:18:13;26.30;94.70
11569;DHT22;5840;46.894;15.542;2023-05-07T11:20:57;26.30;93.70
11569;DHT22;5840;46.894;15.542;2023-05-07T11:23:56;25.90;93.80
11569;DHT22;5840;46.894;15.542;2023-05-07T11:26:24;25.30;94.50
11569;DHT22;5840;46.894;15.542;2023-05-07T11:28:53;25.10;96.70
11569;DHT22;5840;46.894;15.542;2023-05-07T11:31:24;25.20;96.70
11569;DHT22;5840;46.894;15.542;2023-05-07T11:33:53;25.30;96.30
11569;DHT22;5840;46.894;15.542;2023-05-07T11:36:22;25.50;95.50
11569;DHT22;5840;46.894;15.542;2023-05-07T11:38:49;25.60;96.10
11569;DHT22;5840;46.894;15.542;2023-05-07T11:41:16;25.70;95.40
11569;DHT22;5840;46.894;15.542;2023-05-07T11:43:57;25.60;95.10
11569;DHT22;5840;46.894;15.542;2023-05-07T11:46:24;25.30;97.40
11569;DHT22;5840;46.894;15.542;2023-05-07T11:48:51;25.30;98.80
11569;DHT22;5840;46.894;15.542;2023-05-07T11:51:19;25.30;95.20
11569;DHT22;5840;46.894;15.542;2023-05-07T11:53:47;25.00;96.90
11569;DHT22;5840;46.894;15.542;2023-05-07T11:56:15;24.90;95.80
11569;DHT22;5840;46.894;15.542;2023-05-07T11:58:43;24.80;95.20
11569;DHT22;5840;46.894;15.542;2023-05-07T12:01:13;24.80;95.90
11569;DHT22;5840;46.894;15.542;2023-05-07T12:03:41;24.90;98.30
11569;DHT22;5840;46.894;15.542;2023-05-07T12:06:09;24.90;95.40
11569;DHT22;5840;46.894;15.542;2023-05-07T12:08:37;24.60;96.70
11569;DHT22;5840;46.894;15.542;2023-05-07T12:11:07;24.50;96.90
11569;DHT22;5840;46.894;15.542;2023-05-07T12:13:34;24.50;96.70
11569;DHT22;5840;46.894;15.542;2023-05-07T12:16:01;24.40;97.30
11569;DHT22;5840;46.894;15.542;2023-05-07T12:18:31;24.30;97.90
11569;DHT22;5840;46.894;15.542;2023-05-07T12:20:59;24.40;98.10
11569;DHT22;5840;46.894;15.542;2023-05-07T12:23:26;24.40;96.70
11569;DHT22;5840;46.894;15.542;2023-05-07T12:25:53;24.40;98.10
11569;DHT22;5840;46.894;15.542;2023-05-07T12:28:20;24.50;97.60
11569;DHT22;5840;46.894;15.542;2023-05-07T12:30:48;24.40;97.20
11569;DHT22;5840;46.894;15.542;2023-05-07T12:33:17;24.20;97.20
11569;DHT22;5840;46.894;15.542;2023-05-07T12:35:48;24.20;97.40
11569;DHT22;5840;46.894;15.542;2023-05-07T12:38:17;24.30;95.60
11569;DHT22;5840;46.894;15.542;2023-05-07T12:40:46;24.30;95.90
11569;DHT22;5840;46.894;15.542;2023-05-07T12:43:16;24.10;96.90
11569;DHT22;5840;46.894;15.542;2023-05-07T12:45:44;23.90;98.00
11569;DHT22;5840;46.894;15.542;2023-05-07T12:48:12;23.80;98.00
11569;DHT22;5840;46.894;15.542;2023-05-07T12:50:39;23.80;96.00
11569;DHT22;5840;46.894;15.542;2023-05-07T12:53:08;24.00;97.10
11569;DHT22;5840;46.894;15.542;2023-05-07T12:55:45;24.10;97.60
11569;DHT22;5840;46.894;15.542;2023-05-07T12:58:19;24.30;97.00
11569;DHT22;5840;46.894;15.542;2023-05-07T13:00:48;24.30;97.70
11569;DHT22;5840;46.894;15.542;2023-05-07T13:03:23;24.30;95.60
11569;DHT22;5840;46.894;15.542;2023-05-07T13:05:50;24.00;95.80
11569;DHT22;5840;46.894;15.542;2023-05-07T13:08:27;24.00;97.20
11569;DHT22;5840;46.894;15.542;2023-05-07T13:10:54;23.90;95.60
11569;DHT22;5840;46.894;15.542;2023-05-07T13:13:21;23.70;96.80
11569;DHT22;5840;46.894;15.542;2023-05-07T13:15:48;23.80;96.80
11569;DHT22;5840;46.894;15.542;2023-05-07T13:18:14;23.90;98.20
11569;DHT22;5840;46.894;15.542;2023-05-07T13:20:41;24.00;97.50
11569;DHT22;5840;46.894;15.542;2023-05-07T13:23:08;23.80;95.40
11569;DHT22;5840;46.894;15.542;2023-05-07T13:25:37;23.80;96.00
11569;DHT22;5840;46.894;15.542;2023-05-07T13:28:04;23.90;97.40
11569;DHT22;5840;46.894;15.542;2023-05-07T13:30:30;23.90;96.50
11569;DHT22;5840;46.894;15.542;2023-05-07T13:32:57;23.90;97.20
11569;DHT22;5840;46.894;15.542;2023-05-07T13:35:24;23.90;97.00
11569;DHT22;5840;46.894;15.542;2023-05-07T13:37:51;24.00;95.40
11569;DHT22;5840;46.894;15.542;2023-05-07T13:40:20;23.80;96.00
11569;DHT22;5840;46.894;15.542;2023-05-07T13:42:48;23.80;98.10
11569;DHT22;5840;46.894;15.542;2023-05-07T13:45:16;23.70;97.50
11569;DHT22;5840;46.894;15.542;2023-05-07T13:47:43;23.60;96.60
11569;DHT22;5840;46.894;15.542;2023-05-07T13:50:10;23.60;96.10
11569;DHT22;5840;46.894;15.542;2023-05-07T13:52:40;23.40;97.60
11569;DHT22;5840;46.894;15.542;2023-05-07T13:55:09;23.30;97.10
11569;DHT22;5840;46.894;15.542;2023-05-07T13:57:36;23.20;97.50
11569;DHT22;5840;46.894;15.542;2023-05-07T14:00:06;23.00;98.40
11569;DHT22;5840;46.894;15.542;2023-05-07T14:02:33;22.90;99.20
11569;DHT22;5840;46.894;15.542;2023-05-07T14:05:00;22.70;99.40
11569;DHT22;5840;46.894;15.542;2023-05-07T14:07:27;22.50;99.90
11569;DHT22;5840;46.894;15.542;2023-05-07T14:09:54;22.10;99.90
11569;DHT22;5840;46.894;15.542;2023-05-07T14:12:22;21.20;99.90
11569;DHT22;5840;46.894;15.542;2023-05-07T14:14:49;20.00;99.90
11569;DHT22;5840;46.894;15.542;2023-05-07T14:17:18;19.10;99.90
11569;DHT22;5840;46.894;15.542;2023-05-07T14:19:45;18.50;99.90
11569;DHT22;5840;46.894;15.542;2023-05-07T14:22:13;18.10;99.90
11569;DHT22;5840;46.894;15.542;2023-05-07T14:24:40;17.70;99.90
11569;DHT22;5840;46.894;15.542;2023-05-07T14:27:07;17.50;99.90
11569;DHT22;5840;46.894;15.542;2023-05-07T14:29:34;17.10;99.90
11569;DHT22;5840;46.894;15.542;2023-05-07T14:32:01;16.80;99.90
11569;DHT22;5840;46.894;15.542;2023-05-07T14:34:31;16.60;99.90
11569;DHT22;5840;46.894;15.542;2023-05-07T14:37:00;16.60;99.90
11569;DHT22;5840;46.894;15.542;2023-05-07T14:39:27;16.60;99.90
11569;DHT22;5840;46.894;15.542;2023-05-07T14:41:54;16.50;99.90
11569;DHT22;5840;46.894;15.542;2023-05-07T14:44:21;16.60;99.90
11569;DHT22;5840;46.894;15.542;2023-05-07T14:46:48;16.60;99.90
11569;DHT22;5840;46.894;15.542;2023-05-07T14:49:15;16.50;99.90
11569;DHT22;5840;46.894;15.542;2023-05-07T14:51:44;16.50;99.90
11569;DHT22;5840;46.894;15.542;2023-05-07T14:54:11;16.40;99.90
11569;DHT22;5840;46.894;15.542;2023-05-07T14:56:39;16.30;99.90
11569;DHT22;5840;46.894;15.542;2023-05-07T14:59:06;16.30;99.90
11569;DHT22;5840;46.894;15.542;2023-05-07T15:01:34;16.30;99.90
11569;DHT22;5840;46.894;15.542;2023-05-07T15:04:03;16.30;99.90
11569;DHT22;5840;46.894;15.542;2023-05-07T15:06:30;16.20;99.90
11569;DHT22;5840;46.894;15.542;2023-05-07T15:08:58;16.10;99.90
11569;DHT22;5840;46.894;15.542;2023-05-07T15:11:25;16.00;99.90
11569;DHT22;5840;46.894;15.542;2023-05-07T15:13:52;16.00;99.90
11569;DHT22;5840;46.894;15.542;2023-05-07T15:16:19;15.90;99.90
11569;DHT22;5840;46.894;15.542;2023-05-07T15:18:46;15.80;99.90
11569;DHT22;5840;46.894;15.542;2023-05-07T15:21:13;15.80;99.90
11569;DHT22;5840;46.894;15.542;2023-05-07T15:23:40;15.80;99.90
11569;DHT22;5840;46.894;15.542;2023-05-07T15:26:10;15.80;99.90
11569;DHT22;5840;46.894;15.542;2023-05-07T15:28:37;15.80;99.90
11569;DHT22;5840;46.894;15.542;2023-05-07T15:31:04;15.70;99.90
11569;DHT22;5840;46.894;15.542;2023-05-07T15:33:32;15.80;99.90
11569;DHT22;5840;46.894;15.542;2023-05-07T15:35:59;15.80;99.90